Kuopio, Finland

11:55 PM EET on February 27, 2015 (GMT +0200)
Kuopio | Change Station
CLOSE
Current Station
Airport
Location: Kuopio,
Elevation: 335 ft
Nearby Weather Stations

Elev 335 ft 63.01 °N, 27.80 °E | Updated 5 minutes ago

Overcast
Overcast
32 °F
Feels Like 24 °F
N
9
Wind Variable Wind from South

Today
High -- | Low -- °F
--% Chance of Precip.
Yesterday
High -- | Low -- °F
Precip. -- in
7:21 AM 5:22 PM
Waxing Gibbous, 72% visible
Pressure 30.04 in
Visibility 6.2 miles
Clouds Overcast 1100 ft
Windchill 24 °F
Dew Point 28 °F
Humidity 87%
Rainfall 0.00 in
Snow Depth Not available.
UV 0 out of 12
Pollen Not available.
Air Quality Not available.
Flu Activity Not available.
METAR EFKU 272150Z AUTO 17008KT 9999 OVC011 00/M02 Q1017

More Conditions Fewer Conditions

Pressure 30.04 in
Visibility 6.2 miles
Clouds Overcast 1100 ft
Windchill 24 °F
Dew Point 28 °F
Humidity 87%
Rainfall 0.00 in
Snow Depth Not available.
UV 0 out of 12
Pollen Not available.
Air Quality Not available.
Flu Activity Not available.
METAR EFKU 272150Z AUTO 17008KT 9999 OVC011 00/M02 Q1017

More Conditions Fewer Conditions

10-Day Weather Forecast

Almanac

Astronomy

Feb. 27, 2015 Rise Set
Actual Time
Civil Twilight
Nautical Twilight
Astronomical Twilight
Moon
Length of Visible Light
Length of Day
Tomorrow will be .
, % of the Moon is Illuminated

Today's Extremes

Country Highs Country Lows

Community

WunderPhotos

Upload Photos

1,800,844 photos uploaded!

WunderBlogs® & News

Nearby

Air Quality

  Air Quality AQ Index Pollutant
Not available.

Snow Depth

Station Depth Elevation

Earthquake Activity

City Distance Mag. Time & Date
Minimum magnitude displayed is 2.5.

Coastal Water Temperatures

Place Temperature

Nearby Weather Stations